createdAt,value
2022-11-30T00:01:19.524Z,102195.13
2022-11-30T00:03:46.508Z,102193.22
2022-11-30T00:06:16.394Z,102190.28
2022-11-30T00:08:43.209Z,102185.84
2022-11-30T00:11:14.818Z,102186.34
2022-11-30T00:13:42.158Z,102177.69
2022-11-30T00:16:09.814Z,102182.31
2022-11-30T00:18:37.480Z,102182.72
2022-11-30T00:21:06.347Z,102179.38
2022-11-30T00:23:34.400Z,102185.09
2022-11-30T00:26:05.943Z,102181.50
2022-11-30T00:28:33.655Z,102184.16
2022-11-30T00:31:02.200Z,102153.06
2022-11-30T00:33:29.485Z,102206.31
2022-11-30T00:36:01.195Z,102192.56
2022-11-30T00:38:27.698Z,102205.06
2022-11-30T00:40:54.421Z,102165.78
2022-11-30T00:43:21.017Z,102212.66
2022-11-30T00:45:47.521Z,102217.00
2022-11-30T00:48:13.983Z,102215.13
2022-11-30T00:50:40.958Z,102198.97
2022-11-30T00:53:07.384Z,102212.72
2022-11-30T00:55:33.965Z,102217.94
2022-11-30T00:58:01.233Z,102210.78
2022-11-30T01:00:28.781Z,102218.72
2022-11-30T01:02:56.100Z,102224.09
2022-11-30T01:05:22.688Z,102214.56
2022-11-30T01:07:49.205Z,102179.63
2022-11-30T01:10:15.909Z,102187.09
2022-11-30T01:12:42.355Z,102222.69
2022-11-30T01:15:09.274Z,102224.66
2022-11-30T01:17:35.710Z,102229.13
2022-11-30T01:20:02.179Z,102223.47
2022-11-30T01:22:29.230Z,102229.88
2022-11-30T01:24:55.710Z,102222.56
2022-11-30T01:27:22.187Z,102184.13
2022-11-30T01:29:48.629Z,102170.16
2022-11-30T01:32:15.103Z,102231.03
2022-11-30T01:34:41.561Z,102226.22
2022-11-30T01:37:08.070Z,102177.50
2022-11-30T01:39:34.506Z,102222.38
2022-11-30T01:42:01.001Z,102127.59
2022-11-30T01:44:27.417Z,102219.78
2022-11-30T01:46:59.028Z,102217.88
2022-11-30T01:49:41.883Z,102224.59
2022-11-30T01:52:19.929Z,102177.97
2022-11-30T01:54:51.392Z,102080.66
2022-11-30T01:57:25.448Z,102172.22
2022-11-30T01:59:55.006Z,102147.03
2022-11-30T02:02:32.874Z,102208.84
2022-11-30T02:05:00.035Z,102213.63
2022-11-30T02:07:27.241Z,102203.78
2022-11-30T02:09:53.736Z,102173.53
2022-11-30T02:12:39.087Z,102217.16
2022-11-30T02:15:11.263Z,102218.38
2022-11-30T02:17:57.019Z,102226.69
2022-11-30T02:20:55.848Z,102229.13
2022-11-30T02:23:32.089Z,102221.03
2022-11-30T02:26:19.272Z,102221.66
2022-11-30T02:29:06.777Z,102220.53
2022-11-30T02:31:41.848Z,102195.75
2022-11-30T02:34:10.858Z,102220.66
2022-11-30T02:36:37.701Z,102213.28
2022-11-30T02:39:05.788Z,102217.59
2022-11-30T02:41:38.256Z,102175.97
2022-11-30T02:44:06.579Z,102166.22
2022-11-30T02:46:44.300Z,102215.44
2022-11-30T02:49:25.898Z,102215.31
2022-11-30T02:51:55.012Z,102204.94
2022-11-30T02:54:21.724Z,102169.78
2022-11-30T02:56:48.154Z,102194.75
2022-11-30T02:59:14.850Z,102223.41
2022-11-30T03:01:42.531Z,102228.81
2022-11-30T03:04:09.143Z,102166.03
2022-11-30T03:06:35.674Z,102240.19
2022-11-30T03:09:02.198Z,102248.16
2022-11-30T03:11:28.642Z,102171.63
2022-11-30T03:13:55.091Z,102129.13
2022-11-30T03:16:21.579Z,102243.09
2022-11-30T03:18:48.061Z,102183.03
2022-11-30T03:21:14.603Z,102246.47
2022-11-30T03:23:41.224Z,102228.06
2022-11-30T03:26:09.142Z,102242.66
2022-11-30T03:28:36.812Z,102236.91
2022-11-30T03:31:03.532Z,102126.09
2022-11-30T03:33:30.060Z,102243.97
2022-11-30T03:36:07.534Z,102216.13
2022-11-30T03:38:34.794Z,102244.53
2022-11-30T03:41:02.808Z,102178.97
2022-11-30T03:43:29.739Z,102256.22
2022-11-30T03:45:56.185Z,102184.91
2022-11-30T03:48:23.242Z,102254.00
2022-11-30T03:50:50.305Z,102237.22
2022-11-30T03:53:21.906Z,102182.31
2022-11-30T03:56:00.324Z,102252.19
2022-11-30T03:58:27.202Z,102161.66
2022-11-30T04:01:07.348Z,102258.22
2022-11-30T04:03:34.741Z,102255.97
2022-11-30T04:06:02.245Z,102230.44
2022-11-30T04:08:29.053Z,102168.41
2022-11-30T04:10:57.106Z,102270.44
2022-11-30T04:13:24.660Z,102225.88
2022-11-30T04:15:52.313Z,102256.41
2022-11-30T04:18:20.488Z,102257.06
2022-11-30T04:20:47.028Z,102264.25
2022-11-30T04:23:13.485Z,102247.78
2022-11-30T04:25:41.284Z,102262.69
2022-11-30T04:28:08.655Z,102227.97
2022-11-30T04:30:36.829Z,102273.38
2022-11-30T04:33:04.389Z,102274.09
2022-11-30T04:35:30.964Z,102211.28
2022-11-30T04:37:57.413Z,102221.56
2022-11-30T04:40:23.990Z,102259.03
2022-11-30T04:42:50.413Z,102267.75
2022-11-30T04:45:16.983Z,102259.22
2022-11-30T04:47:43.481Z,102271.53
2022-11-30T04:50:12.223Z,102259.34
2022-11-30T04:52:38.653Z,102228.63
2022-11-30T04:55:05.654Z,102265.34
2022-11-30T04:57:32.127Z,102276.16
2022-11-30T04:59:58.649Z,102218.50
2022-11-30T05:02:25.114Z,102241.19
2022-11-30T05:04:51.831Z,102270.75
2022-11-30T05:07:18.585Z,102273.31
2022-11-30T05:09:45.118Z,102281.41
2022-11-30T05:12:11.602Z,102251.88
2022-11-30T05:14:38.385Z,102284.72
2022-11-30T05:17:04.950Z,102284.78
2022-11-30T05:19:31.366Z,102287.28
2022-11-30T05:21:57.805Z,102287.81
2022-11-30T05:24:24.296Z,102250.38
2022-11-30T05:26:50.742Z,102257.47
2022-11-30T05:29:17.159Z,102284.75
2022-11-30T05:31:43.650Z,102260.16
2022-11-30T05:34:10.524Z,102255.91
2022-11-30T05:36:36.975Z,102307.81
2022-11-30T05:39:03.831Z,102308.00
2022-11-30T05:41:30.275Z,102245.41
2022-11-30T05:43:56.807Z,102312.56
2022-11-30T05:46:23.726Z,102311.53
2022-11-30T05:48:50.261Z,102314.38
2022-11-30T05:51:18.672Z,102318.72
2022-11-30T05:53:45.731Z,102306.00
2022-11-30T05:56:15.155Z,102287.34
2022-11-30T05:58:41.916Z,102322.50
2022-11-30T06:01:16.659Z,102255.97
2022-11-30T06:03:43.144Z,102306.78
2022-11-30T06:06:09.567Z,102267.63
2022-11-30T06:08:35.995Z,102262.53
2022-11-30T06:11:02.984Z,102332.03
2022-11-30T06:13:29.506Z,102309.13
2022-11-30T06:15:59.425Z,102242.72
2022-11-30T06:18:26.216Z,102330.66
2022-11-30T06:20:52.790Z,102321.13
2022-11-30T06:23:19.262Z,102313.84
2022-11-30T06:25:45.789Z,102326.84
2022-11-30T06:28:13.433Z,102336.81
2022-11-30T06:30:39.878Z,102345.91
2022-11-30T06:33:06.748Z,102272.69
2022-11-30T06:35:33.304Z,102338.06
2022-11-30T06:38:00.647Z,102344.13
2022-11-30T06:40:27.997Z,102252.59
2022-11-30T06:42:54.943Z,102318.63
2022-11-30T06:45:21.423Z,102347.91
2022-11-30T06:47:47.905Z,102346.81
2022-11-30T06:50:15.166Z,102346.69
2022-11-30T06:52:41.644Z,102351.16
2022-11-30T06:55:08.358Z,102344.19
2022-11-30T06:57:35.091Z,102345.25
2022-11-30T07:00:01.681Z,102353.09
2022-11-30T07:02:28.171Z,102326.97
2022-11-30T07:04:54.583Z,102317.72
2022-11-30T07:07:21.500Z,102354.94
2022-11-30T07:09:48.012Z,102356.84
2022-11-30T07:12:14.505Z,102306.22
2022-11-30T07:14:40.931Z,102361.72
2022-11-30T07:17:07.392Z,102360.81
2022-11-30T07:19:37.042Z,102319.91
2022-11-30T07:22:03.594Z,102370.69
2022-11-30T07:24:48.809Z,102368.81
2022-11-30T07:27:15.435Z,102296.78
2022-11-30T07:29:41.877Z,102373.94
2022-11-30T07:32:08.417Z,102367.97
2022-11-30T07:34:34.932Z,102269.81
2022-11-30T07:37:01.385Z,102376.09
2022-11-30T07:39:27.958Z,102362.84
2022-11-30T07:41:54.393Z,102309.75
2022-11-30T07:44:20.846Z,102380.97
2022-11-30T07:46:47.433Z,102370.81
2022-11-30T07:49:13.940Z,102375.75
2022-11-30T07:51:40.463Z,102381.16
2022-11-30T07:54:07.009Z,102352.44
2022-11-30T07:56:33.541Z,102353.75
2022-11-30T07:59:01.600Z,102392.78
2022-11-30T08:01:31.422Z,102387.31
2022-11-30T08:03:58.820Z,102356.72
2022-11-30T08:06:27.956Z,102395.22
2022-11-30T08:08:57.116Z,102396.00
2022-11-30T08:11:26.162Z,102396.63
2022-11-30T08:13:53.323Z,102393.59
2022-11-30T08:16:32.307Z,102376.00
2022-11-30T08:18:58.776Z,102390.34
2022-11-30T08:21:25.574Z,102396.81
2022-11-30T08:23:56.748Z,102394.75
2022-11-30T08:26:26.449Z,102397.00
2022-11-30T08:28:53.406Z,102374.34
2022-11-30T08:31:39.653Z,102410.09
2022-11-30T08:34:09.435Z,102406.47
2022-11-30T08:36:35.940Z,102409.81
2022-11-30T08:39:05.001Z,102409.91
2022-11-30T08:41:32.041Z,102410.66
2022-11-30T08:43:58.533Z,102413.69
2022-11-30T08:46:50.332Z,102417.72
2022-11-30T08:49:21.490Z,102403.47
2022-11-30T08:54:46.478Z,102395.09
2022-11-30T08:57:17.808Z,102426.47
2022-11-30T08:59:44.767Z,102440.09
2022-11-30T09:02:14.103Z,102443.38
2022-11-30T09:04:40.737Z,102449.53
2022-11-30T09:07:07.363Z,102448.41
2022-11-30T09:09:33.808Z,102393.38
2022-11-30T09:12:00.339Z,102451.16
2022-11-30T09:14:26.821Z,102450.06
2022-11-30T09:16:54.051Z,102437.06
2022-11-30T09:19:21.339Z,102453.88
2022-11-30T09:21:51.953Z,102460.22
2022-11-30T09:24:18.968Z,102446.84
2022-11-30T09:26:45.378Z,102456.28
2022-11-30T09:29:11.841Z,102415.03
2022-11-30T09:31:38.324Z,102456.03
2022-11-30T09:34:04.879Z,102464.84
2022-11-30T09:36:32.997Z,102468.38
2022-11-30T09:38:59.521Z,102468.78
2022-11-30T09:41:28.856Z,102459.88
2022-11-30T09:44:20.315Z,102460.28
2022-11-30T09:46:53.104Z,102462.38
2022-11-30T09:49:24.364Z,102428.19
2022-11-30T09:51:52.622Z,102470.28
2022-11-30T09:54:35.521Z,102471.84
2022-11-30T09:57:12.511Z,102413.34
2022-11-30T09:59:46.094Z,102468.13
2022-11-30T10:02:18.972Z,102401.53
2022-11-30T10:04:45.881Z,102464.25
2022-11-30T10:07:26.410Z,102461.38
2022-11-30T10:10:30.899Z,102385.72
2022-11-30T10:13:15.945Z,102453.97
2022-11-30T10:15:58.117Z,102453.34
2022-11-30T10:18:54.160Z,102460.53
2022-11-30T10:21:32.746Z,102452.31
2022-11-30T10:24:05.346Z,102453.72
2022-11-30T10:26:38.227Z,102455.53
2022-11-30T10:29:17.870Z,102441.44
2022-11-30T10:31:46.488Z,102422.34
2022-11-30T10:34:20.509Z,102455.31
2022-11-30T10:37:12.915Z,102453.59
2022-11-30T10:39:57.156Z,102451.66
2022-11-30T10:42:35.294Z,102452.69
2022-11-30T10:45:04.859Z,102446.41
2022-11-30T10:47:37.098Z,102425.84
2022-11-30T10:50:06.082Z,102439.69
2022-11-30T10:52:42.787Z,102448.25
2022-11-30T10:55:21.434Z,102437.97
2022-11-30T10:57:51.060Z,102425.44
2022-11-30T11:00:18.297Z,102443.63
2022-11-30T11:02:46.881Z,102391.50
2022-11-30T11:05:25.506Z,102403.72
2022-11-30T11:08:06.333Z,102449.56
2022-11-30T11:10:45.223Z,102445.38
2022-11-30T11:13:39.042Z,102444.41
2022-11-30T11:16:09.505Z,102451.28
2022-11-30T11:18:37.830Z,102450.19
2022-11-30T11:21:07.548Z,102406.84
2022-11-30T11:23:39.904Z,102451.47
2022-11-30T11:26:22.581Z,102447.31
2022-11-30T11:28:51.582Z,102443.38
2022-11-30T11:31:44.233Z,102442.84
2022-11-30T11:34:31.729Z,102441.06
2022-11-30T11:37:31.086Z,102446.28
2022-11-30T11:40:05.709Z,102377.53
2022-11-30T11:42:36.901Z,102445.53
2022-11-30T11:45:06.017Z,102447.03
2022-11-30T11:47:40.654Z,102442.22
2022-11-30T11:53:23.162Z,102449.75
2022-11-30T11:55:57.417Z,102457.47
2022-11-30T11:58:34.154Z,102455.66
2022-11-30T12:01:31.693Z,102442.34
2022-11-30T12:04:17.221Z,102461.63
2022-11-30T12:06:45.456Z,102461.09
2022-11-30T12:09:19.745Z,102463.56
2022-11-30T12:11:48.859Z,102462.66
2022-11-30T12:14:19.341Z,102456.78
2022-11-30T12:17:15.158Z,102461.25
2022-11-30T12:19:59.929Z,102451.47
2022-11-30T12:22:51.435Z,102453.84
2022-11-30T12:25:36.395Z,102446.28
2022-11-30T12:28:11.666Z,102454.00
2022-11-30T12:30:41.059Z,102462.09
2022-11-30T12:33:39.899Z,102461.56
2022-11-30T12:36:48.299Z,102462.41
2022-11-30T12:39:41.167Z,102464.84
2022-11-30T12:42:18.213Z,102458.31
2022-11-30T12:45:11.233Z,102469.47
2022-11-30T12:47:53.899Z,102459.00
2022-11-30T12:50:54.106Z,102473.91
2022-11-30T12:53:20.495Z,102471.16
2022-11-30T12:56:06.214Z,102473.59
2022-11-30T12:58:47.193Z,102474.81
2022-11-30T13:01:37.944Z,102476.28
2022-11-30T13:04:28.468Z,102475.56
2022-11-30T13:07:25.796Z,102458.19
2022-11-30T13:10:00.620Z,102475.13
2022-11-30T13:12:37.152Z,102470.63
2022-11-30T13:15:15.779Z,102477.78
2022-11-30T13:17:43.891Z,102482.03
2022-11-30T13:20:36.739Z,102486.25
2022-11-30T13:23:15.298Z,102438.72
2022-11-30T13:26:07.937Z,102487.63
2022-11-30T13:28:41.096Z,102494.06
2022-11-30T13:31:28.451Z,102441.81
2022-11-30T13:33:55.041Z,102488.66
2022-11-30T13:36:23.058Z,102489.59
2022-11-30T13:39:29.816Z,102484.00
2022-11-30T13:42:02.963Z,102483.38
2022-11-30T13:44:32.092Z,102293.38
2022-11-30T13:47:00.328Z,102387.34
2022-11-30T13:49:33.351Z,102492.88
2022-11-30T13:52:22.205Z,102495.09
2022-11-30T13:54:51.346Z,102495.06
2022-11-30T13:57:30.130Z,102486.41
2022-11-30T14:00:31.375Z,102491.47
2022-11-30T14:03:21.097Z,102495.50
2022-11-30T14:05:53.647Z,102486.06
2022-11-30T14:08:22.736Z,102486.97
2022-11-30T14:10:51.843Z,102486.78
2022-11-30T14:13:22.777Z,102495.78
2022-11-30T14:16:29.791Z,102498.25
2022-11-30T14:18:57.032Z,102498.31
2022-11-30T14:21:32.759Z,102417.78
2022-11-30T14:24:04.114Z,102462.78
2022-11-30T14:26:37.006Z,102502.69
2022-11-30T14:29:09.164Z,102505.34
2022-11-30T14:31:58.614Z,102508.84
2022-11-30T14:34:32.327Z,102502.00
2022-11-30T14:37:03.954Z,102513.19
2022-11-30T14:39:37.082Z,102509.22
2022-11-30T14:42:05.790Z,102511.63
2022-11-30T14:44:40.831Z,102517.41
2022-11-30T14:47:16.361Z,102499.94
2022-11-30T14:49:56.292Z,102509.38
2022-11-30T14:52:44.078Z,102515.44
2022-11-30T14:55:29.893Z,102517.25
2022-11-30T14:58:18.238Z,102515.22
2022-11-30T15:00:45.634Z,102501.44
2022-11-30T15:03:28.656Z,102517.88
2022-11-30T15:06:00.261Z,102521.50
2022-11-30T15:08:34.950Z,102447.34
2022-11-30T15:11:06.896Z,102517.53
2022-11-30T15:13:37.846Z,102469.19
2022-11-30T15:16:09.937Z,102513.81
2022-11-30T15:18:39.275Z,102512.97
2022-11-30T15:21:17.334Z,102508.19
2022-11-30T15:23:50.658Z,102502.69
2022-11-30T15:26:33.431Z,102517.63
2022-11-30T15:29:22.887Z,102502.72
2022-11-30T15:31:52.082Z,102496.63
2022-11-30T15:34:44.057Z,102508.66
2022-11-30T15:37:11.303Z,102507.84
2022-11-30T15:39:38.827Z,102517.19
2022-11-30T15:42:06.006Z,102483.31
2022-11-30T15:44:41.472Z,102516.50
2022-11-30T15:47:31.748Z,102513.75
2022-11-30T15:49:58.322Z,102513.91
2022-11-30T15:52:27.313Z,102525.44
2022-11-30T15:54:55.278Z,102517.34
2022-11-30T15:57:24.441Z,102521.97
2022-11-30T16:00:24.025Z,102525.75
2022-11-30T16:03:07.565Z,102530.16
2022-11-30T16:05:34.058Z,102537.91
2022-11-30T16:08:03.691Z,102551.19
2022-11-30T16:10:36.054Z,102540.50
2022-11-30T16:13:02.717Z,102525.19
2022-11-30T16:15:31.368Z,102550.63
2022-11-30T16:18:15.418Z,102547.22
2022-11-30T16:20:43.485Z,102535.56
2022-11-30T16:23:15.284Z,102528.72
2022-11-30T16:25:43.477Z,102550.59
2022-11-30T16:28:11.757Z,102547.16
2022-11-30T16:30:39.043Z,102552.50
2022-11-30T16:33:05.928Z,102481.63
2022-11-30T16:35:38.929Z,102560.31
2022-11-30T16:38:05.492Z,102560.31
2022-11-30T16:40:37.044Z,102551.81
2022-11-30T16:43:05.794Z,102558.59
2022-11-30T16:45:36.542Z,102487.31
2022-11-30T16:48:03.629Z,102564.91
2022-11-30T16:50:32.437Z,102499.94
2022-11-30T16:52:59.033Z,102498.22
2022-11-30T16:55:30.188Z,102562.03
2022-11-30T16:57:57.052Z,102548.13
2022-11-30T17:00:23.785Z,102511.91
2022-11-30T17:02:59.513Z,102576.34
2022-11-30T17:05:27.216Z,102579.78
2022-11-30T17:07:54.770Z,102578.03
2022-11-30T17:10:21.633Z,102580.66
2022-11-30T17:12:48.215Z,102581.84
2022-11-30T17:15:17.422Z,102582.78
2022-11-30T17:17:43.876Z,102585.44
2022-11-30T17:20:11.874Z,102582.34
2022-11-30T17:22:39.881Z,102561.03
2022-11-30T17:25:09.701Z,102572.50
2022-11-30T17:27:36.141Z,102605.50
2022-11-30T17:30:02.963Z,102593.69
2022-11-30T17:32:29.405Z,102590.16
2022-11-30T17:34:55.866Z,102585.75
2022-11-30T17:37:23.168Z,102604.88
2022-11-30T17:39:50.510Z,102604.63
2022-11-30T17:42:16.931Z,102397.97
2022-11-30T17:44:43.388Z,102610.69
2022-11-30T17:47:10.019Z,102601.53
2022-11-30T17:49:36.507Z,102601.75
2022-11-30T17:52:02.968Z,102610.44
2022-11-30T17:54:29.518Z,102611.22
2022-11-30T17:56:55.992Z,102607.81
2022-11-30T17:59:22.491Z,102557.06
2022-11-30T18:01:49.029Z,102611.16
2022-11-30T18:04:16.005Z,102618.28
2022-11-30T18:06:42.690Z,102618.19
2022-11-30T18:09:09.225Z,102596.50
2022-11-30T18:11:36.381Z,102617.09
2022-11-30T18:14:05.442Z,102626.22
2022-11-30T18:16:36.441Z,102616.38
2022-11-30T18:19:11.671Z,102628.06
2022-11-30T18:21:40.321Z,102626.88
2022-11-30T18:24:07.226Z,102631.09
2022-11-30T18:26:35.613Z,102643.41
2022-11-30T18:29:02.948Z,102623.94
2022-11-30T18:31:30.848Z,102614.91
2022-11-30T18:34:03.121Z,102498.94
2022-11-30T18:36:30.915Z,102559.56
2022-11-30T18:38:57.421Z,102642.50
2022-11-30T18:41:26.461Z,102642.56
2022-11-30T18:43:53.658Z,102570.09
2022-11-30T18:46:20.434Z,102647.31
2022-11-30T18:48:51.792Z,102611.53
2022-11-30T18:51:20.804Z,102610.03
2022-11-30T18:53:47.659Z,102657.38
2022-11-30T18:56:18.323Z,102655.72
2022-11-30T18:58:45.840Z,102579.75
2022-11-30T19:01:18.325Z,102658.41
2022-11-30T19:03:53.697Z,102626.28
2022-11-30T19:06:20.723Z,102657.47
2022-11-30T19:08:48.130Z,102654.84
2022-11-30T19:11:16.194Z,102608.13
2022-11-30T19:13:43.307Z,102647.75
2022-11-30T19:16:14.019Z,102640.88
2022-11-30T19:18:40.917Z,102653.47
2022-11-30T19:21:13.627Z,102643.88
2022-11-30T19:23:40.735Z,102608.25
2022-11-30T19:26:09.865Z,102551.94
2022-11-30T19:28:37.739Z,102621.75
2022-11-30T19:31:18.916Z,102666.41
2022-11-30T19:33:47.682Z,102670.00
2022-11-30T19:36:17.631Z,102672.66
2022-11-30T19:38:44.365Z,102587.00
2022-11-30T19:41:13.153Z,102677.84
2022-11-30T19:43:40.346Z,102670.91
2022-11-30T19:46:14.534Z,102677.56
2022-11-30T19:48:41.988Z,102668.75
2022-11-30T19:51:14.956Z,102601.13
2022-11-30T19:53:44.267Z,102678.13
2022-11-30T19:56:14.918Z,102606.53
2022-11-30T19:58:45.907Z,102700.31
2022-11-30T20:01:19.539Z,102688.72
2022-11-30T20:03:46.224Z,102670.84
2022-11-30T20:06:12.778Z,102663.34
2022-11-30T20:08:39.357Z,102694.47
2022-11-30T20:11:10.441Z,102684.84
2022-11-30T20:13:37.505Z,102675.16
2022-11-30T20:16:13.469Z,102693.56
2022-11-30T20:18:45.724Z,102617.50
2022-11-30T20:21:18.538Z,102699.69
2022-11-30T20:23:47.208Z,102654.94
2022-11-30T20:26:18.239Z,102697.75
2022-11-30T20:28:46.071Z,102697.75
2022-11-30T20:31:14.778Z,102699.50
2022-11-30T20:33:42.113Z,102680.34
2022-11-30T20:36:10.348Z,102704.16
2022-11-30T20:38:37.409Z,102572.09
2022-11-30T20:41:04.582Z,102703.91
2022-11-30T20:43:31.253Z,102677.03
2022-11-30T20:45:57.759Z,102707.03
2022-11-30T20:48:24.327Z,102682.09
2022-11-30T20:51:21.678Z,102609.59
2022-11-30T20:53:37.460Z,102606.22
2022-11-30T20:56:04.122Z,102706.63
2022-11-30T20:58:30.978Z,102709.31
2022-11-30T21:00:59.249Z,102691.94
2022-11-30T21:03:26.151Z,102708.44
2022-11-30T21:05:52.668Z,102681.28
2022-11-30T21:08:19.122Z,102710.19
2022-11-30T21:10:45.588Z,102709.19
2022-11-30T21:13:12.038Z,102686.44
2022-11-30T21:15:38.528Z,102713.63
2022-11-30T21:18:05.354Z,102700.38
2022-11-30T21:20:31.853Z,102692.91
2022-11-30T21:22:58.279Z,102661.47
2022-11-30T21:25:24.710Z,102631.63
2022-11-30T21:27:52.243Z,102703.28
2022-11-30T21:30:18.898Z,102710.41
2022-11-30T21:32:45.349Z,102655.38
2022-11-30T21:35:11.821Z,102652.88
2022-11-30T21:37:38.286Z,102661.44
2022-11-30T21:40:05.229Z,102707.63
2022-11-30T21:42:31.651Z,102702.47
2022-11-30T21:44:58.066Z,102700.56
2022-11-30T21:47:24.536Z,102587.78
2022-11-30T21:49:51.015Z,102652.41
2022-11-30T21:52:17.455Z,102637.44
2022-11-30T21:54:43.905Z,102647.03
2022-11-30T21:57:10.453Z,102694.41
2022-11-30T21:59:36.910Z,102701.53
2022-11-30T22:02:04.222Z,102679.91
2022-11-30T22:04:30.773Z,102693.91
2022-11-30T22:06:57.307Z,102602.06
2022-11-30T22:09:23.702Z,102697.66
2022-11-30T22:11:50.191Z,102645.66
2022-11-30T22:14:17.610Z,102665.66
2022-11-30T22:16:44.920Z,102698.00
2022-11-30T22:19:11.411Z,102703.94
2022-11-30T22:21:38.243Z,102705.56
2022-11-30T22:24:07.766Z,102704.41
2022-11-30T22:26:36.670Z,102707.97
2022-11-30T22:29:08.538Z,102709.75
2022-11-30T22:31:37.911Z,102691.09
2022-11-30T22:34:04.591Z,102705.31
2022-11-30T22:36:33.293Z,102721.19
2022-11-30T22:39:02.290Z,102716.75
2022-11-30T22:41:30.002Z,102703.50
2022-11-30T22:43:57.797Z,102709.66
2022-11-30T22:46:26.621Z,102705.19
2022-11-30T22:48:53.225Z,102709.56
2022-11-30T22:51:22.630Z,102698.13
2022-11-30T22:53:49.964Z,102709.06
2022-11-30T22:56:25.212Z,102708.13
2022-11-30T22:58:54.347Z,102707.88
2022-11-30T23:01:22.785Z,102691.06
2022-11-30T23:03:50.609Z,102701.91
2022-11-30T23:06:19.394Z,102704.56
2022-11-30T23:08:47.016Z,102708.72
2022-11-30T23:11:16.949Z,102698.44
2022-11-30T23:13:43.521Z,102583.00
2022-11-30T23:16:11.475Z,102698.34
2022-11-30T23:18:40.658Z,102602.06
2022-11-30T23:21:09.702Z,102716.00
2022-11-30T23:23:36.347Z,102665.88
2022-11-30T23:26:22.878Z,102713.16
2022-11-30T23:28:51.893Z,102708.88
2022-11-30T23:31:34.313Z,102721.25
2022-11-30T23:34:04.896Z,102724.16
2022-11-30T23:36:32.109Z,102724.00
2022-11-30T23:39:01.445Z,102729.25
2022-11-30T23:41:28.384Z,102724.94
2022-11-30T23:43:55.312Z,102730.34
2022-11-30T23:46:22.414Z,102732.03
2022-11-30T23:48:49.204Z,102729.41
2022-11-30T23:51:15.746Z,102729.47
2022-11-30T23:53:42.487Z,102609.66
2022-11-30T23:56:13.134Z,102692.94
2022-11-30T23:58:39.792Z,102723.19
